Euskara    
Meteorología y climatología de Navarra
Datos de la estación - Meteo Navarra

Estación de Gorramendi GN

Altitud 1071 m.


Datos desde el 22/11/2020 hasta el 23/11/2020 en horario solar
Los datos son PROVISIONALES

Anterior Página 1 de 1 Siguiente Descargar: Formato para Excel 2000 o superior   Formato csv   Formato para OpenOffice Calc
Fecha Temperatura Humedad relativa Radiación global Insolación Precipitación Vel. viento 10 m Vel. viento 10 m Dir. viento 10 m
°C % W/m² s l/m² m/s km/h °
22/11/2020 0:00 10.2 19 0.0 0 0.0 8.6 30.9 191
22/11/2020 0:10 10.0 19 0.0 0 0.0 9.7 35.0 194
22/11/2020 0:20 10.2 17 0.0 0 0.0 9.8 35.3 194
22/11/2020 0:30 10.3 17 0.0 0 0.0 9.3 33.5 190
22/11/2020 0:40 10.2 18 0.0 0 0.0 8.3 30.0 190
22/11/2020 0:50 9.9 18 0.0 0 0.0 8.7 31.4 190
22/11/2020 1:00 10.0 18 0.0 0 0.0 8.8 31.5 191
22/11/2020 1:10 9.7 19 0.0 0 0.0 8.3 29.8 190
22/11/2020 1:20 9.4 21 0.0 0 0.0 8.3 29.9 190
22/11/2020 1:30 9.4 21 0.0 0 0.0 8.1 29.1 192
22/11/2020 1:40 9.2 22 0.0 0 0.0 8.0 28.7 193
22/11/2020 1:50 8.9 24 0.0 0 0.0 8.2 29.3 194
22/11/2020 2:00 9.4 21 0.0 0 0.0 7.8 27.9 193
22/11/2020 2:10 9.1 23 0.0 0 0.0 8.3 29.9 194
22/11/2020 2:20 9.0 24 0.0 0 0.0 9.4 33.7 195
22/11/2020 2:30 9.0 23 0.0 0 0.0 8.7 31.4 194
22/11/2020 2:40 9.1 23 0.0 0 0.0 8.5 30.4 193
22/11/2020 2:50 9.2 23 0.0 0 0.0 8.7 31.3 193
22/11/2020 3:00 9.0 24 0.0 0 0.0 9.3 33.3 192
22/11/2020 3:10 9.0 24 0.0 0 0.0 9.5 34.3 193
22/11/2020 3:20 8.4 27 0.0 0 0.0 9.0 32.4 194
22/11/2020 3:30 8.2 27 0.0 0 0.0 8.8 31.5 195
22/11/2020 3:40 8.3 28 0.0 0 0.0 8.6 30.8 197
22/11/2020 3:50 8.6 25 0.0 0 0.0 8.5 30.5 197
22/11/2020 4:00 8.8 25 0.0 0 0.0 8.5 30.5 193
22/11/2020 4:10 8.7 25 0.0 0 0.0 8.4 30.3 194
22/11/2020 4:20 8.6 27 0.0 0 0.0 8.1 29.1 193
22/11/2020 4:30 8.5 28 0.0 0 0.0 8.2 29.4 193
22/11/2020 4:40 8.4 29 0.0 0 0.0 8.1 29.2 190
22/11/2020 4:50 8.4 29 0.0 0 0.0 7.2 26.0 190
22/11/2020 5:00 8.4 30 0.0 0 0.0 7.1 25.7 194
22/11/2020 5:10 8.6 31 0.0 0 0.0 6.9 24.9 198
22/11/2020 5:20 8.5 32 0.0 0 0.0 6.3 22.5 196
22/11/2020 5:30 8.3 33 0.0 0 0.0 5.2 18.8 197
22/11/2020 5:40 8.1 33 0.0 0 0.0 5.0 17.9 197
22/11/2020 5:50 8.3 32 0.0 0 0.0 4.9 17.5 195
22/11/2020 6:00 8.4 31 0.0 0 0.0 4.6 16.5 197
22/11/2020 6:10 8.8 31 0.0 0 0.0 4.8 17.2 194
22/11/2020 6:20 8.9 30 0.0 0 0.0 4.3 15.3 207
22/11/2020 6:30 9.3 28 0.0 0 0.0 3.8 13.7 218
22/11/2020 6:40 9.3 27 0.0 0 0.0 3.8 13.5 224
22/11/2020 6:50 9.3 27 0.0 0 0.0 3.8 13.6 227
22/11/2020 7:00 9.3 27 0.0 0 0.0 3.4 12.3 230
22/11/2020 7:10 9.3 26 0.0 0 0.0 3.4 12.1 231
22/11/2020 7:20 9.4 26 9.6 0 0.0 3.7 13.4 237
22/11/2020 7:30 9.4 27 36.3 498 0.0 3.5 12.6 235
22/11/2020 7:40 9.5 27 57.2 600 0.0 3.3 12.0 238
22/11/2020 7:50 9.6 27 80.4 600 0.0 3.1 11.0 238
22/11/2020 8:00 9.5 27 104.6 600 0.0 2.7 9.8 235
22/11/2020 8:10 9.4 28 129.0 600 0.0 3.1 11.1 227
22/11/2020 8:20 9.5 29 154.0 600 0.0 3.2 11.6 227
22/11/2020 8:30 9.5 29 179.4 600 0.0 3.5 12.6 225
22/11/2020 8:40 9.5 30 205.6 600 0.0 3.5 12.4 226
22/11/2020 8:50 9.7 31 232.3 600 0.0 3.4 12.1 225
22/11/2020 9:00 9.7 31 258.6 600 0.0 3.0 10.7 228
22/11/2020 9:10 9.8 31 284.2 600 0.0 2.9 10.4 218
22/11/2020 9:20 10.0 31 288.2 600 0.0 2.6 9.3 228
22/11/2020 9:30 10.2 29 320.7 600 0.0 2.5 8.9 243
22/11/2020 9:40 10.1 29 351.4 600 0.0 2.0 7.2 246
22/11/2020 9:50 10.2 30 371.3 600 0.0 2.1 7.6 259
22/11/2020 10:00 10.1 29 390.6 600 0.0 2.7 9.8 272
22/11/2020 10:10 10.1 30 407.7 600 0.0 3.1 11.1 266
22/11/2020 10:20 9.9 30 422.2 600 0.0 3.2 11.6 268
22/11/2020 10:30 9.9 30 433.5 600 0.0 2.9 10.6 271
22/11/2020 10:40 9.9 31 442.6 600 0.0 2.8 9.9 268
22/11/2020 10:50 10.0 31 446.5 600 0.0 2.1 7.4 268
22/11/2020 11:00 10.0 32 448.6 600 0.0 2.1 7.4 266
22/11/2020 11:10 10.2 31 456.7 600 0.0 1.8 6.6 263
22/11/2020 11:20 10.4 30 459.3 600 0.0 1.6 5.6 283
22/11/2020 11:30 10.2 31 467.5 600 0.0 1.5 5.3 274
22/11/2020 11:40 10.2 29 475.3 600 0.0 1.6 5.6 289
22/11/2020 11:50 10.2 27 484.8 600 0.0 1.7 6.0 322
22/11/2020 12:00 9.9 30 488.6 600 0.0 1.7 6.0 319
22/11/2020 12:10 9.8 31 489.2 600 0.0 1.8 6.5 332
22/11/2020 12:20 9.3 38 487.3 600 0.0 1.7 6.2 344
22/11/2020 12:30 9.0 39 483.4 600 0.0 1.9 6.9 2
22/11/2020 12:40 9.0 36 477.4 600 0.0 2.3 8.3 11
22/11/2020 12:50 9.1 35 468.9 600 0.0 1.9 6.9 12
22/11/2020 13:00 9.4 36 457.9 600 0.0 1.5 5.3 21
22/11/2020 13:10 9.4 37 446.4 600 0.0 1.8 6.5 22
22/11/2020 13:20 9.2 39 434.5 600 0.0 2.0 7.3 22
22/11/2020 13:30 9.2 41 420.7 600 0.0 1.5 5.4 25
22/11/2020 13:40 9.4 45 405.0 600 0.0 1.3 4.6 19
22/11/2020 13:50 9.3 46 388.1 600 0.0 1.6 5.6 26
22/11/2020 14:00 9.2 44 366.2 600 0.0 1.5 5.3 17
22/11/2020 14:10 9.0 46 347.8 600 0.0 1.7 6.0 24
22/11/2020 14:20 9.0 47 327.4 600 0.0 1.6 5.7 26
22/11/2020 14:30 9.0 46 303.1 600 0.0 1.1 3.9 31
22/11/2020 14:40 8.9 45 280.1 600 0.0 0.9 3.2 67
22/11/2020 14:50 9.3 45 255.2 600 0.0 0.6 2.3 52
22/11/2020 15:00 9.3 44 224.0 600 0.0 0.5 1.9 79
22/11/2020 15:10 9.2 46 203.4 600 0.0 0.9 3.1 122
22/11/2020 15:20 9.5 49 180.8 600 0.0 0.8 3.0 112
22/11/2020 15:30 9.6 42 154.5 600 0.0 1.1 3.8 314
22/11/2020 15:40 9.7 40 127.7 600 0.0 0.9 3.2 292
22/11/2020 15:50 9.8 40 101.9 600 0.0 1.3 4.8 282
22/11/2020 16:00 9.5 42 76.8 600 0.0 1.6 5.7 302
22/11/2020 16:10 9.0 43 53.5 600 0.0 1.2 4.4 299
22/11/2020 16:20 9.1 46 32.3 382 0.0 1.4 5.0 274
22/11/2020 16:30 9.0 46 10.8 0 0.0 1.1 4.0 263
22/11/2020 16:40 8.7 45 0.0 0 0.0 0.9 3.4 294
22/11/2020 16:50 9.1 35 0.0 0 0.0 1.7 5.9 317
22/11/2020 17:00 8.9 44 0.0 0 0.0 1.6 5.6 305
22/11/2020 17:10 8.4 48 0.0 0 0.0 1.5 5.5 318
22/11/2020 17:20 8.5 47 0.0 0 0.0 1.6 5.6 314
22/11/2020 17:30 8.8 39 0.0 0 0.0 1.6 5.8 331
22/11/2020 17:40 8.9 43 0.0 0 0.0 1.5 5.4 348
22/11/2020 17:50 7.9 47 0.0 0 0.0 1.9 6.9 8
22/11/2020 18:00 7.3 48 0.0 0 0.0 2.7 9.6 10
22/11/2020 18:10 7.1 49 0.0 0 0.0 2.8 10.0 12
22/11/2020 18:20 7.2 48 0.0 0 0.0 2.3 8.2 8
22/11/2020 18:30 7.4 45 0.0 0 0.0 2.4 8.5 2
22/11/2020 18:40 7.5 46 0.0 0 0.0 2.8 9.9 350
22/11/2020 18:50 7.7 45 0.0 0 0.0 2.7 9.6 338
22/11/2020 19:00 7.6 44 0.0 0 0.0 3.3 11.8 338
22/11/2020 19:10 7.6 44 0.0 0 0.0 3.8 13.8 340
22/11/2020 19:20 7.6 42 0.0 0 0.0 4.0 14.4 345
22/11/2020 19:30 7.8 41 0.0 0 0.0 4.3 15.3 342
22/11/2020 19:40 7.6 38 0.0 0 0.0 4.4 15.8 349
22/11/2020 19:50 7.4 41 0.0 0 0.0 5.0 17.9 359
22/11/2020 20:00 7.4 42 0.0 0 0.0 4.4 15.9 358
22/11/2020 20:10 7.3 43 0.0 0 0.0 4.3 15.5 358
22/11/2020 20:20 7.3 44 0.0 0 0.0 3.4 12.3 351
22/11/2020 20:30 7.2 46 0.0 0 0.0 3.2 11.4 346
22/11/2020 20:40 7.2 46 0.0 0 0.0 2.9 10.5 339
22/11/2020 20:50 7.1 48 0.0 0 0.0 3.2 11.6 340
22/11/2020 21:00 7.0 48 0.0 0 0.0 3.0 10.8 336
22/11/2020 21:10 6.9 50 0.0 0 0.0 2.7 9.6 332
22/11/2020 21:20 6.9 50 0.0 0 0.0 2.8 9.9 345
22/11/2020 21:30 6.7 50 0.0 0 0.0 3.2 11.6 350
22/11/2020 21:40 6.5 49 0.0 0 0.0 3.3 11.7 349
22/11/2020 21:50 6.3 51 0.0 0 0.0 3.5 12.4 337
22/11/2020 22:00 6.1 52 0.0 0 0.0 3.2 11.6 333
22/11/2020 22:10 5.9 52 0.0 0 0.0 3.5 12.7 328
22/11/2020 22:20 5.8 55 0.0 0 0.0 2.6 9.4 323
22/11/2020 22:30 5.5 58 0.0 0 0.0 2.5 9.0 331
22/11/2020 22:40 5.5 59 0.0 0 0.0 2.0 7.3 330
22/11/2020 22:50 5.7 51 0.0 0 0.0 2.2 7.8 339
22/11/2020 23:00 5.5 56 0.0 0 0.0 2.5 8.8 345
22/11/2020 23:10 5.6 56 0.0 0 0.0 2.5 8.8 340
22/11/2020 23:20 5.2 63 0.0 0 0.0 2.2 7.8 355
22/11/2020 23:30 5.4 57 0.0 0 0.0 2.2 8.1 348
22/11/2020 23:40 5.4 52 0.0 0 0.0 1.9 6.8 337
22/11/2020 23:50 5.8 46 0.0 0 0.0 1.7 6.0 321
Anterior Página 1 de 1 Siguiente
Los datos de precipitación registrados en estaciones que están en cumbres son inferiores a lo real, como consecuencia del efecto del viento y de la nieve.


NOTA: Tipo de datos según el color:
   - Valores diarios o 10 minutos correctos
   - Valores diarios calculados a partir de un número de datos 10 minutos menor que 144 y mayor que 120, o de un número de datos semihorarios menor que 48 y mayor que 40 (caso de las estaciones de INTIA Y Ministerio)
   - Valores diez minutos estimados


Contacto        Enlaces        Aviso legal